createdAt,value
2022-08-22T00:00:53.691Z,46.81
2022-08-22T00:02:19.688Z,46.83
2022-08-22T00:02:43.674Z,43.83
2022-08-22T00:02:54.995Z,46.15
2022-08-22T00:02:58.276Z,42.32
2022-08-22T00:02:58.483Z,41.96
2022-08-22T00:03:03.866Z,44.77
2022-08-22T00:03:06.939Z,46.55
2022-08-22T00:03:10.646Z,45.93
2022-08-22T00:03:10.729Z,45.75
2022-08-22T00:03:33.628Z,46.86
2022-08-22T00:04:56.379Z,46.59
2022-08-22T00:06:14.907Z,46.77
2022-08-22T00:07:32.144Z,46.75
2022-08-22T00:09:08.763Z,46.90
2022-08-22T00:10:25.513Z,46.87
2022-08-22T00:12:00.144Z,47.10
2022-08-22T00:13:16.831Z,46.97
2022-08-22T00:14:24.487Z,46.96
2022-08-22T00:15:43.111Z,46.92
2022-08-22T00:17:23.815Z,47.20
2022-08-22T00:18:40.242Z,46.98
2022-08-22T00:19:55.723Z,46.80
2022-08-22T00:21:15.928Z,46.99
2022-08-22T00:22:34.388Z,46.90
2022-08-22T00:24:12.751Z,47.03
2022-08-22T00:25:48.937Z,46.88
2022-08-22T00:27:02.056Z,46.90
2022-08-22T00:28:15.572Z,46.62
2022-08-22T00:29:27.388Z,46.82
2022-08-22T00:30:38.260Z,46.65
2022-08-22T00:32:15.912Z,46.67
2022-08-22T00:33:40.274Z,46.41
2022-08-22T00:35:03.215Z,46.65
2022-08-22T00:36:16.302Z,46.54
2022-08-22T00:37:31.964Z,46.59
2022-08-22T00:38:45.410Z,46.81
2022-08-22T00:39:52.826Z,46.52
2022-08-22T00:41:01.549Z,46.45
2022-08-22T00:42:34.888Z,46.58
2022-08-22T00:44:02.833Z,46.58
2022-08-22T00:45:31.738Z,46.61
2022-08-22T00:46:55.288Z,46.72
2022-08-22T00:48:33.547Z,46.85
2022-08-22T00:50:20.635Z,46.83
2022-08-22T00:51:33.167Z,46.78
2022-08-22T00:52:40.485Z,46.66
2022-08-22T00:53:59.822Z,46.81
2022-08-22T00:55:25.240Z,46.77
2022-08-22T00:56:35.763Z,46.52
2022-08-22T00:58:04.700Z,46.83
2022-08-22T00:59:24.267Z,46.59
2022-08-22T01:00:35.045Z,46.55
2022-08-22T01:02:11.174Z,46.56
2022-08-22T01:03:30.571Z,46.57
2022-08-22T01:04:37.848Z,46.61
2022-08-22T01:05:53.927Z,46.80
2022-08-22T01:07:19.890Z,46.75
2022-08-22T01:08:51.044Z,46.61
2022-08-22T01:10:17.444Z,46.64
2022-08-22T01:11:27.909Z,46.85
2022-08-22T01:12:42.039Z,46.81
2022-08-22T01:14:04.358Z,46.79
2022-08-22T01:15:10.059Z,46.80
2022-08-22T01:16:40.399Z,46.77
2022-08-22T01:18:00.552Z,46.63
2022-08-22T01:19:11.112Z,46.55
2022-08-22T01:20:37.759Z,46.58
2022-08-22T01:22:09.936Z,46.59
2022-08-22T01:23:43.144Z,46.67
2022-08-22T01:25:04.594Z,46.62
2022-08-22T01:26:44.000Z,46.66
2022-08-22T01:27:57.576Z,46.79
2022-08-22T01:29:36.498Z,46.85
2022-08-22T01:30:59.201Z,46.87
2022-08-22T01:32:38.980Z,46.81
2022-08-22T01:33:43.366Z,46.87
2022-08-22T01:35:01.803Z,46.85
2022-08-22T01:36:29.781Z,46.77
2022-08-22T01:37:50.030Z,46.92
2022-08-22T01:39:10.356Z,46.86
2022-08-22T01:40:36.057Z,46.81
2022-08-22T01:42:12.981Z,46.95
2022-08-22T01:43:59.054Z,47.03
2022-08-22T01:45:03.689Z,46.64
2022-08-22T01:46:24.004Z,46.82
2022-08-22T01:47:50.087Z,46.86
2022-08-22T01:49:33.989Z,46.60
2022-08-22T01:50:38.303Z,46.61
2022-08-22T01:52:09.736Z,46.80
2022-08-22T01:53:51.256Z,46.79
2022-08-22T01:54:59.069Z,46.64
2022-08-22T01:56:03.412Z,46.64
2022-08-22T01:57:08.327Z,46.73
2022-08-22T01:58:22.380Z,46.87
2022-08-22T01:59:42.123Z,46.81
2022-08-22T02:01:07.138Z,46.68
2022-08-22T02:02:14.775Z,46.77
2022-08-22T02:03:31.775Z,46.99
2022-08-22T02:04:45.206Z,46.72
2022-08-22T02:05:53.451Z,46.73
2022-08-22T02:07:05.372Z,46.62
2022-08-22T02:08:17.408Z,46.70
2022-08-22T02:09:46.578Z,46.64
2022-08-22T02:11:02.081Z,46.67
2022-08-22T02:12:42.653Z,46.74
2022-08-22T02:13:49.779Z,46.45
2022-08-22T02:15:05.525Z,46.90
2022-08-22T02:16:14.810Z,46.77
2022-08-22T02:17:23.099Z,46.67
2022-08-22T02:18:31.160Z,46.77
2022-08-22T02:19:44.667Z,46.58
2022-08-22T02:21:22.496Z,46.85
2022-08-22T02:23:12.030Z,46.88
2022-08-22T02:24:35.105Z,46.79
2022-08-22T02:25:56.959Z,47.01
2022-08-22T02:27:11.392Z,46.98
2022-08-22T02:28:19.953Z,47.18
2022-08-22T02:30:00.214Z,47.04
2022-08-22T02:31:18.220Z,46.77
2022-08-22T02:32:30.056Z,46.81
2022-08-22T02:33:46.557Z,47.04
2022-08-22T02:35:12.764Z,46.90
2022-08-22T02:36:59.315Z,46.98
2022-08-22T02:38:31.483Z,46.93
2022-08-22T02:39:43.351Z,46.98
2022-08-22T02:40:59.414Z,46.90
2022-08-22T02:42:04.005Z,46.92
2022-08-22T02:43:18.058Z,46.90
2022-08-22T02:44:28.315Z,47.13
2022-08-22T02:45:41.791Z,46.85
2022-08-22T02:46:55.195Z,46.92
2022-08-22T02:48:40.446Z,47.03
2022-08-22T02:50:05.854Z,47.04
2022-08-22T02:51:39.066Z,46.90
2022-08-22T02:53:19.043Z,46.85
2022-08-22T02:54:39.205Z,46.73
2022-08-22T02:55:55.600Z,46.73
2022-08-22T02:57:39.437Z,46.82
2022-08-22T02:59:11.959Z,47.02
2022-08-22T03:00:31.062Z,47.09
2022-08-22T03:01:38.746Z,46.73
2022-08-22T03:02:45.799Z,46.83
2022-08-22T03:03:48.234Z,47.00
2022-08-22T03:04:55.552Z,47.14
2022-08-22T03:06:39.119Z,47.08
2022-08-22T03:07:48.535Z,46.92
2022-08-22T03:09:28.831Z,47.26
2022-08-22T03:10:38.191Z,47.16
2022-08-22T03:11:45.237Z,47.42
2022-08-22T03:13:01.563Z,47.17
2022-08-22T03:14:18.877Z,47.22
2022-08-22T03:15:49.330Z,47.12
2022-08-22T03:16:54.283Z,47.03
2022-08-22T03:18:23.574Z,47.23
2022-08-22T03:19:42.378Z,47.06
2022-08-22T03:20:59.165Z,47.31
2022-08-22T03:22:09.556Z,47.04
2022-08-22T03:23:26.303Z,47.13
2022-08-22T03:24:50.205Z,47.28
2022-08-22T03:26:01.865Z,47.22
2022-08-22T03:27:32.712Z,47.29
2022-08-22T03:28:59.567Z,47.35
2022-08-22T03:30:07.805Z,47.07
2022-08-22T03:31:25.027Z,47.26
2022-08-22T03:32:54.442Z,47.28
2022-08-22T03:34:16.358Z,47.18
2022-08-22T03:35:26.491Z,47.26
2022-08-22T03:36:31.444Z,47.10
2022-08-22T03:37:39.403Z,47.17
2022-08-22T03:39:17.383Z,47.05
2022-08-22T03:40:31.788Z,46.96
2022-08-22T03:42:02.801Z,47.05
2022-08-22T03:43:13.757Z,46.86
2022-08-22T03:44:45.592Z,46.89
2022-08-22T03:46:02.982Z,46.90
2022-08-22T03:47:23.322Z,46.94
2022-08-22T03:49:04.955Z,46.98
2022-08-22T03:50:09.530Z,46.81
2022-08-22T03:51:19.823Z,46.79
2022-08-22T03:53:03.034Z,46.97
2022-08-22T03:54:12.059Z,46.87
2022-08-22T03:55:36.972Z,46.93
2022-08-22T03:57:00.473Z,46.87
2022-08-22T03:58:27.353Z,46.96
2022-08-22T04:00:11.364Z,46.79
2022-08-22T04:01:57.624Z,46.83
2022-08-22T04:03:12.223Z,46.61
2022-08-22T04:04:19.602Z,46.54
2022-08-22T04:05:56.991Z,46.58
2022-08-22T04:07:32.023Z,46.68
2022-08-22T04:09:03.569Z,46.85
2022-08-22T04:10:15.001Z,46.66
2022-08-22T04:11:25.751Z,46.54
2022-08-22T04:12:39.624Z,46.65
2022-08-22T04:13:59.264Z,46.36
2022-08-22T04:15:38.436Z,46.55
2022-08-22T04:16:48.698Z,46.25
2022-08-22T04:18:28.421Z,46.15
2022-08-22T04:19:49.690Z,46.09
2022-08-22T04:21:22.196Z,45.75
2022-08-22T04:23:09.771Z,44.88
2022-08-22T04:24:38.169Z,44.08
2022-08-22T04:25:40.356Z,44.58
2022-08-22T04:26:52.520Z,44.03
2022-08-22T04:28:12.461Z,43.36
2022-08-22T04:29:20.057Z,42.77
2022-08-22T04:30:38.264Z,42.68
2022-08-22T04:31:46.495Z,42.73
2022-08-22T04:32:57.087Z,43.31
2022-08-22T04:34:12.438Z,43.01
2022-08-22T04:35:46.292Z,42.67
2022-08-22T04:36:55.366Z,43.29
2022-08-22T04:37:59.881Z,43.65
2022-08-22T04:39:18.543Z,45.38
2022-08-22T04:40:27.599Z,47.54
2022-08-22T04:41:43.760Z,46.41
2022-08-22T04:42:59.582Z,46.81
2022-08-22T04:44:11.349Z,47.48
2022-08-22T04:45:31.114Z,46.51
2022-08-22T04:46:37.073Z,46.97
2022-08-22T04:47:55.575Z,46.00
2022-08-22T04:49:00.748Z,46.46
2022-08-22T04:50:14.839Z,46.35
2022-08-22T04:51:35.677Z,46.20
2022-08-22T04:52:58.952Z,45.76
2022-08-22T04:54:30.870Z,45.49
2022-08-22T04:55:58.588Z,45.90
2022-08-22T04:57:14.787Z,45.27
2022-08-22T04:58:54.420Z,45.10
2022-08-22T05:00:09.083Z,45.15
2022-08-22T05:01:18.606Z,44.38
2022-08-22T05:02:23.281Z,44.49
2022-08-22T05:03:28.986Z,44.17
2022-08-22T05:04:35.751Z,44.07
2022-08-22T05:05:40.067Z,44.01
2022-08-22T05:06:47.283Z,43.55
2022-08-22T05:07:57.384Z,43.90
2022-08-22T05:09:04.553Z,43.25
2022-08-22T05:10:21.500Z,43.70
2022-08-22T05:11:24.684Z,43.19
2022-08-22T05:12:39.971Z,42.92
2022-08-22T05:13:47.193Z,43.12
2022-08-22T05:14:58.354Z,43.12
2022-08-22T05:16:05.920Z,42.80
2022-08-22T05:17:10.756Z,43.02
2022-08-22T05:18:25.490Z,43.04
2022-08-22T05:19:36.207Z,42.12
2022-08-22T05:20:41.711Z,42.62
2022-08-22T05:21:46.323Z,42.67
2022-08-22T05:22:54.147Z,42.84
2022-08-22T05:24:03.134Z,43.02
2022-08-22T05:25:25.318Z,43.42
2022-08-22T05:26:30.078Z,42.84
2022-08-22T05:27:39.191Z,43.17
2022-08-22T05:28:53.559Z,42.73
2022-08-22T05:30:13.154Z,42.47
2022-08-22T05:31:26.445Z,42.69
2022-08-22T05:32:33.051Z,43.15
2022-08-22T05:33:42.467Z,42.98
2022-08-22T05:34:46.184Z,42.83
2022-08-22T05:35:58.223Z,42.60
2022-08-22T05:37:17.813Z,42.33
2022-08-22T05:38:25.970Z,42.50
2022-08-22T05:39:28.310Z,42.25
2022-08-22T05:40:33.442Z,42.68
2022-08-22T05:41:37.730Z,42.43
2022-08-22T05:42:39.904Z,42.52
2022-08-22T05:43:43.334Z,42.58
2022-08-22T05:44:45.040Z,42.69
2022-08-22T05:45:47.774Z,42.54
2022-08-22T05:47:04.426Z,42.58
2022-08-22T05:48:16.329Z,42.14
2022-08-22T05:49:22.816Z,42.29
2022-08-22T05:50:37.223Z,42.28
2022-08-22T05:51:49.948Z,42.04
2022-08-22T05:53:14.403Z,42.19
2022-08-22T05:54:33.793Z,42.08
2022-08-22T05:56:02.033Z,42.42
2022-08-22T05:57:20.457Z,42.35
2022-08-22T05:58:44.156Z,42.22
2022-08-22T05:59:49.905Z,41.99
2022-08-22T06:01:19.058Z,41.57
2022-08-22T06:02:29.478Z,41.73
2022-08-22T06:03:37.628Z,41.84
2022-08-22T06:05:00.891Z,41.72
2022-08-22T06:06:11.599Z,41.28
2022-08-22T06:07:20.621Z,41.07
2022-08-22T06:08:34.382Z,41.49
2022-08-22T06:09:47.917Z,41.30
2022-08-22T06:10:55.585Z,40.89
2022-08-22T06:12:06.260Z,40.66
2022-08-22T06:13:24.578Z,40.47
2022-08-22T06:14:56.237Z,40.49
2022-08-22T06:16:22.001Z,40.37
2022-08-22T06:17:31.035Z,40.05
2022-08-22T06:18:33.610Z,39.95
2022-08-22T06:19:39.034Z,39.98
2022-08-22T06:20:46.839Z,40.07
2022-08-22T06:21:51.777Z,40.24
2022-08-22T06:22:57.610Z,40.01
2022-08-22T06:24:01.162Z,39.71
2022-08-22T06:25:18.506Z,39.90
2022-08-22T06:26:21.561Z,39.66
2022-08-22T06:27:27.038Z,39.81
2022-08-22T06:28:38.229Z,39.70
2022-08-22T06:30:00.769Z,39.70
2022-08-22T06:31:04.295Z,39.66
2022-08-22T06:32:27.876Z,39.63
2022-08-22T06:33:45.909Z,38.94
2022-08-22T06:34:49.080Z,38.94
2022-08-22T06:36:16.363Z,39.74
2022-08-22T06:37:31.727Z,39.72
2022-08-22T06:38:53.834Z,39.74
2022-08-22T06:39:56.419Z,39.22
2022-08-22T06:41:03.167Z,39.69
2022-08-22T06:42:11.219Z,39.35
2022-08-22T06:43:17.482Z,38.86
2022-08-22T06:44:27.760Z,38.92
2022-08-22T06:45:32.253Z,38.79
2022-08-22T06:46:37.821Z,38.93
2022-08-22T06:47:50.145Z,39.18
2022-08-22T06:48:56.034Z,38.54
2022-08-22T06:50:13.817Z,38.68
2022-08-22T06:51:18.822Z,38.73
2022-08-22T06:52:26.140Z,38.44
2022-08-22T06:53:39.585Z,38.68
2022-08-22T06:54:52.793Z,38.35
2022-08-22T06:55:59.458Z,38.32
2022-08-22T06:57:03.391Z,38.39
2022-08-22T06:58:07.409Z,38.06
2022-08-22T06:59:15.766Z,38.14
2022-08-22T07:00:18.339Z,38.15
2022-08-22T07:01:42.826Z,38.12
2022-08-22T07:02:48.904Z,37.95
2022-08-22T07:03:53.979Z,37.96
2022-08-22T07:04:56.043Z,37.86
2022-08-22T07:05:58.097Z,38.02
2022-08-22T07:07:01.333Z,38.03
2022-08-22T07:08:13.803Z,37.94
2022-08-22T07:09:34.680Z,37.90
2022-08-22T07:10:40.741Z,37.98
2022-08-22T07:11:43.049Z,38.26
2022-08-22T07:12:48.255Z,38.13
2022-08-22T07:13:58.256Z,38.30
2022-08-22T07:15:11.013Z,38.36
2022-08-22T07:16:12.984Z,38.10
2022-08-22T07:17:33.131Z,38.46
2022-08-22T07:18:35.065Z,38.40
2022-08-22T07:19:40.033Z,38.54
2022-08-22T07:20:45.271Z,38.35
2022-08-22T07:21:48.484Z,38.10
2022-08-22T07:23:12.808Z,38.23
2022-08-22T07:24:21.059Z,38.13
2022-08-22T07:25:24.753Z,39.12
2022-08-22T07:26:41.311Z,41.02
2022-08-22T07:27:48.278Z,40.67
2022-08-22T07:28:59.424Z,40.31
2022-08-22T07:30:09.969Z,39.81
2022-08-22T07:31:26.427Z,39.31
2022-08-22T07:32:34.729Z,39.12
2022-08-22T07:33:43.980Z,38.73
2022-08-22T07:35:04.603Z,38.29
2022-08-22T07:36:23.553Z,38.41
2022-08-22T07:37:34.275Z,38.38
2022-08-22T07:38:43.938Z,38.01
2022-08-22T07:40:01.952Z,38.05
2022-08-22T07:41:08.832Z,37.91
2022-08-22T07:42:16.270Z,37.71
2022-08-22T07:43:31.475Z,37.78
2022-08-22T07:44:55.299Z,37.50
2022-08-22T07:46:01.372Z,38.93
2022-08-22T07:47:12.176Z,39.18
2022-08-22T07:48:27.729Z,38.80
2022-08-22T07:49:34.453Z,39.27
2022-08-22T07:50:51.343Z,38.66
2022-08-22T07:52:04.187Z,42.31
2022-08-22T07:53:36.436Z,46.61
2022-08-22T07:54:41.567Z,45.53
2022-08-22T07:55:49.545Z,43.77
2022-08-22T07:57:13.314Z,42.09
2022-08-22T07:58:16.117Z,42.49
2022-08-22T07:59:20.504Z,46.98
2022-08-22T08:00:23.595Z,47.03
2022-08-22T08:01:26.290Z,47.36
2022-08-22T08:02:28.927Z,46.34
2022-08-22T08:03:31.503Z,44.85
2022-08-22T08:04:40.195Z,44.72
2022-08-22T08:05:45.399Z,46.11
2022-08-22T08:06:53.331Z,44.30
2022-08-22T08:07:56.560Z,43.53
2022-08-22T08:08:58.853Z,42.68
2022-08-22T08:10:05.110Z,41.91
2022-08-22T08:11:10.588Z,42.86
2022-08-22T08:12:15.352Z,44.73
2022-08-22T08:13:24.692Z,44.91
2022-08-22T08:14:27.167Z,45.48
2022-08-22T08:15:30.456Z,43.96
2022-08-22T08:16:40.906Z,43.26
2022-08-22T08:17:45.222Z,43.53
2022-08-22T08:18:50.012Z,42.75
2022-08-22T08:19:54.488Z,41.80
2022-08-22T08:21:02.166Z,41.42
2022-08-22T08:22:05.668Z,41.01
2022-08-22T08:23:11.957Z,40.73
2022-08-22T08:24:19.473Z,40.27
2022-08-22T08:25:25.872Z,39.39
2022-08-22T08:26:34.446Z,39.25
2022-08-22T08:27:57.380Z,39.68
2022-08-22T08:29:00.084Z,41.39
2022-08-22T08:30:15.418Z,42.31
2022-08-22T08:31:32.107Z,41.99
2022-08-22T08:32:37.498Z,41.19
2022-08-22T08:33:44.224Z,40.49
2022-08-22T08:34:45.955Z,40.96
2022-08-22T08:36:02.846Z,41.64
2022-08-22T08:37:17.265Z,41.33
2022-08-22T08:38:26.437Z,42.04
2022-08-22T08:39:37.713Z,42.42
2022-08-22T08:41:18.690Z,41.64
2022-08-22T08:43:20.266Z,40.44
2022-08-22T08:44:43.625Z,40.01
2022-08-22T08:45:59.042Z,40.09
2022-08-22T08:47:14.969Z,39.86
2022-08-22T08:48:23.323Z,39.78
2022-08-22T08:49:50.476Z,38.97
2022-08-22T08:50:58.032Z,38.72
2022-08-22T08:52:22.012Z,38.64
2022-08-22T08:53:44.867Z,38.47
2022-08-22T08:55:21.921Z,38.58
2022-08-22T08:56:54.448Z,38.99
2022-08-22T08:58:17.779Z,39.92
2022-08-22T08:59:28.783Z,40.65
2022-08-22T09:00:53.841Z,40.27
2022-08-22T09:02:13.762Z,41.09
2022-08-22T09:04:15.417Z,40.50
2022-08-22T09:05:56.816Z,39.28
2022-08-22T09:07:09.496Z,38.84
2022-08-22T09:08:32.707Z,38.85
2022-08-22T09:09:40.171Z,40.54
2022-08-22T09:10:53.826Z,40.52
2022-08-22T09:12:07.327Z,40.63
2022-08-22T09:13:40.677Z,40.99
2022-08-22T09:14:45.581Z,41.27
2022-08-22T09:16:20.103Z,41.35
2022-08-22T09:17:46.488Z,42.93
2022-08-22T09:19:19.359Z,41.69
2022-08-22T09:20:39.124Z,40.61
2022-08-22T09:22:14.315Z,40.04
2022-08-22T09:23:34.906Z,39.39
2022-08-22T09:25:09.304Z,38.93
2022-08-22T09:26:29.389Z,38.75
2022-08-22T09:27:34.004Z,38.83
2022-08-22T09:28:59.745Z,39.05
2022-08-22T09:30:28.530Z,39.02
2022-08-22T09:32:04.118Z,38.54
2022-08-22T09:33:19.255Z,38.27
2022-08-22T09:34:25.726Z,38.46
2022-08-22T09:35:45.626Z,38.11
2022-08-22T09:37:16.363Z,38.15
2022-08-22T09:38:26.111Z,38.22
2022-08-22T09:40:12.203Z,37.83
2022-08-22T09:41:32.545Z,37.97
2022-08-22T09:42:59.270Z,37.82
2022-08-22T09:44:29.909Z,37.80
2022-08-22T09:45:38.135Z,37.60
2022-08-22T09:47:07.551Z,37.62
2022-08-22T09:48:27.908Z,37.60
2022-08-22T09:49:48.325Z,37.50
2022-08-22T09:51:28.588Z,37.60
2022-08-22T09:52:41.468Z,37.54
2022-08-22T09:54:08.136Z,37.49
2022-08-22T09:55:38.807Z,37.52
2022-08-22T09:56:50.121Z,37.44
2022-08-22T09:58:06.819Z,37.40
2022-08-22T09:59:31.631Z,37.69
2022-08-22T10:00:47.304Z,37.45
2022-08-22T10:02:05.945Z,37.61
2022-08-22T10:03:15.797Z,37.46
2022-08-22T10:04:36.602Z,37.60
2022-08-22T10:05:58.874Z,37.47
2022-08-22T10:07:17.001Z,37.48
2022-08-22T10:08:38.435Z,37.44
2022-08-22T10:09:49.081Z,37.36
2022-08-22T10:11:02.410Z,37.64
2022-08-22T10:12:12.935Z,37.85
2022-08-22T10:13:29.496Z,38.04
2022-08-22T10:14:58.345Z,37.95
2022-08-22T10:16:19.988Z,37.64
2022-08-22T10:17:41.010Z,37.83
2022-08-22T10:19:00.535Z,38.00
2022-08-22T10:20:14.323Z,37.70
2022-08-22T10:21:45.316Z,37.81
2022-08-22T10:22:59.218Z,37.65
2022-08-22T10:24:25.575Z,37.76
2022-08-22T10:25:41.856Z,37.60
2022-08-22T10:26:51.237Z,37.63
2022-08-22T10:28:10.375Z,37.62
2022-08-22T10:29:40.418Z,37.52
2022-08-22T10:31:03.566Z,37.44
2022-08-22T10:32:34.407Z,37.42
2022-08-22T10:33:49.051Z,37.41
2022-08-22T10:34:56.888Z,37.16
2022-08-22T10:36:04.997Z,37.21
2022-08-22T10:37:23.577Z,37.10
2022-08-22T10:38:36.160Z,37.15
2022-08-22T10:40:04.779Z,37.13
2022-08-22T10:41:26.264Z,37.24
2022-08-22T10:42:39.832Z,36.59
2022-08-22T10:44:03.897Z,36.46
2022-08-22T10:45:23.540Z,36.62
2022-08-22T10:46:36.220Z,36.66
2022-08-22T10:47:45.438Z,36.13
2022-08-22T10:48:47.944Z,37.09
2022-08-22T10:49:58.883Z,37.33
2022-08-22T10:51:28.848Z,37.28
2022-08-22T10:52:37.718Z,36.84
2022-08-22T10:53:46.641Z,36.74
2022-08-22T10:54:53.181Z,36.82
2022-08-22T10:56:08.480Z,36.67
2022-08-22T10:57:20.805Z,36.40
2022-08-22T10:58:28.386Z,36.33
2022-08-22T10:59:42.385Z,36.06
2022-08-22T11:00:54.293Z,36.37
2022-08-22T11:02:08.198Z,36.05
2022-08-22T11:03:23.311Z,36.61
2022-08-22T11:04:32.048Z,36.22
2022-08-22T11:05:50.191Z,36.28
2022-08-22T11:07:10.803Z,36.49
2022-08-22T11:08:44.159Z,36.58
2022-08-22T11:09:57.179Z,36.26
2022-08-22T11:11:14.040Z,36.59
2022-08-22T11:12:52.571Z,36.08
2022-08-22T11:14:09.750Z,36.14
2022-08-22T11:15:40.180Z,36.35
2022-08-22T11:17:13.889Z,36.36
2022-08-22T11:19:03.038Z,38.00
2022-08-22T11:20:32.719Z,41.05
2022-08-22T11:21:55.517Z,41.65
2022-08-22T11:23:16.482Z,41.85
2022-08-22T11:24:35.770Z,43.31
2022-08-22T11:26:05.136Z,42.77
2022-08-22T11:27:17.688Z,41.23
2022-08-22T11:28:48.182Z,40.59
2022-08-22T11:30:05.501Z,42.05
2022-08-22T11:31:19.922Z,43.59
2022-08-22T11:32:22.995Z,43.75
2022-08-22T11:33:34.546Z,42.70
2022-08-22T11:34:57.547Z,42.10
2022-08-22T11:36:14.786Z,40.77
2022-08-22T11:37:42.171Z,39.96
2022-08-22T11:38:59.944Z,39.17
2022-08-22T11:40:28.508Z,38.91
2022-08-22T11:41:56.347Z,38.45
2022-08-22T11:43:23.422Z,38.35
2022-08-22T11:44:50.394Z,38.19
2022-08-22T11:45:58.061Z,38.11
2022-08-22T11:47:07.477Z,38.13
2022-08-22T11:48:41.942Z,37.89
2022-08-22T11:50:32.893Z,37.59
2022-08-22T11:52:06.366Z,37.43
2022-08-22T11:53:23.817Z,37.38
2022-08-22T11:54:58.468Z,37.42
2022-08-22T11:56:34.886Z,38.93
2022-08-22T11:57:41.826Z,38.89
2022-08-22T11:59:03.167Z,38.79
2022-08-22T12:00:14.183Z,38.18
2022-08-22T12:01:47.472Z,38.13
2022-08-22T12:03:25.974Z,37.81
2022-08-22T12:04:48.495Z,37.80
2022-08-22T12:06:18.578Z,38.73
2022-08-22T12:07:32.343Z,38.53
2022-08-22T12:08:35.231Z,39.07
2022-08-22T12:09:41.481Z,38.71
2022-08-22T12:10:59.820Z,39.15
2022-08-22T12:12:11.615Z,38.32
2022-08-22T12:13:49.397Z,38.82
2022-08-22T12:15:03.166Z,38.55
2022-08-22T12:16:25.015Z,38.34
2022-08-22T12:17:56.053Z,38.49
2022-08-22T12:19:18.201Z,38.32
2022-08-22T12:21:09.178Z,38.36
2022-08-22T12:22:29.917Z,38.43
2022-08-22T12:24:05.921Z,38.49
2022-08-22T12:25:35.422Z,38.32
2022-08-22T12:27:07.865Z,38.44
2022-08-22T12:28:32.307Z,38.35
2022-08-22T12:30:01.321Z,38.73
2022-08-22T12:31:13.093Z,39.15
2022-08-22T12:32:17.494Z,38.96
2022-08-22T12:33:43.887Z,38.98
2022-08-22T12:35:13.976Z,39.27
2022-08-22T12:36:21.824Z,39.18
2022-08-22T12:37:23.363Z,39.21
2022-08-22T12:38:53.899Z,39.18
2022-08-22T12:39:58.430Z,39.18
2022-08-22T12:41:08.785Z,39.22
2022-08-22T12:42:58.032Z,39.41
2022-08-22T12:44:36.696Z,39.54
2022-08-22T12:45:53.372Z,39.30
2022-08-22T12:47:11.905Z,39.11
2022-08-22T12:49:07.981Z,39.57
2022-08-22T12:50:26.198Z,39.52
2022-08-22T12:52:04.733Z,39.79
2022-08-22T12:53:28.045Z,39.52
2022-08-22T12:55:10.908Z,39.95
2022-08-22T12:56:33.615Z,39.60
2022-08-22T12:57:40.902Z,39.65
2022-08-22T12:58:51.024Z,39.66
2022-08-22T13:00:29.446Z,40.24
2022-08-22T13:01:43.559Z,40.47
2022-08-22T13:02:46.248Z,39.76
2022-08-22T13:03:53.606Z,40.58
2022-08-22T13:05:00.703Z,39.89
2022-08-22T13:06:24.652Z,39.87
2022-08-22T13:07:34.639Z,40.10
2022-08-22T13:08:44.707Z,39.69
2022-08-22T13:09:52.357Z,39.83
2022-08-22T13:11:08.120Z,39.77
2022-08-22T13:12:45.313Z,40.11
2022-08-22T13:13:59.351Z,39.88
2022-08-22T13:15:21.325Z,40.06
2022-08-22T13:16:26.503Z,39.72
2022-08-22T13:17:29.191Z,40.06
2022-08-22T13:18:53.663Z,40.61
2022-08-22T13:20:04.725Z,40.17
2022-08-22T13:21:12.706Z,40.44
2022-08-22T13:22:26.193Z,40.77
2022-08-22T13:23:39.830Z,40.34
2022-08-22T13:24:52.287Z,40.36
2022-08-22T13:26:32.182Z,40.28
2022-08-22T13:27:51.014Z,39.99
2022-08-22T13:30:38.871Z,40.11
2022-08-22T13:31:42.884Z,39.92
2022-08-22T13:32:49.166Z,40.37
2022-08-22T13:33:52.649Z,40.23
2022-08-22T13:34:57.709Z,40.44
2022-08-22T13:36:06.628Z,40.48
2022-08-22T13:37:15.859Z,40.29
2022-08-22T13:38:38.005Z,40.55
2022-08-22T13:39:51.052Z,40.55
2022-08-22T13:40:57.557Z,40.46
2022-08-22T13:42:03.621Z,40.97
2022-08-22T13:43:28.398Z,40.64
2022-08-22T13:44:38.282Z,40.72
2022-08-22T13:45:50.178Z,42.60
2022-08-22T13:47:12.855Z,43.75
2022-08-22T13:48:15.687Z,42.39
2022-08-22T13:49:30.433Z,42.39
2022-08-22T13:50:37.546Z,43.69
2022-08-22T13:52:30.924Z,45.44
2022-08-22T13:53:49.857Z,44.19
2022-08-22T13:55:23.542Z,44.05
2022-08-22T13:56:47.686Z,46.34
2022-08-22T13:58:11.167Z,52.10
2022-08-22T13:59:49.472Z,51.40
2022-08-22T14:01:44.332Z,48.59
2022-08-22T14:03:09.716Z,46.67
2022-08-22T14:04:36.187Z,45.90
2022-08-22T14:05:46.497Z,45.00
2022-08-22T14:06:58.994Z,45.45
2022-08-22T14:08:12.469Z,45.36
2022-08-22T14:09:38.626Z,44.92
2022-08-22T14:10:47.786Z,44.28
2022-08-22T14:12:01.256Z,43.91
2022-08-22T14:13:11.674Z,43.71
2022-08-22T14:14:22.888Z,43.56
2022-08-22T14:15:44.844Z,43.80
2022-08-22T14:16:50.779Z,43.44
2022-08-22T14:18:09.312Z,43.13
2022-08-22T14:19:23.639Z,43.40
2022-08-22T14:20:33.524Z,42.80
2022-08-22T14:21:41.563Z,42.70
2022-08-22T14:23:03.890Z,42.95
2022-08-22T14:24:32.319Z,43.04
2022-08-22T14:25:38.046Z,42.31
2022-08-22T14:26:54.386Z,42.81
2022-08-22T14:28:09.060Z,42.55
2022-08-22T14:29:18.000Z,42.37
2022-08-22T14:30:26.447Z,42.72
2022-08-22T14:31:29.788Z,42.64
2022-08-22T14:32:42.378Z,42.64
2022-08-22T14:33:51.535Z,42.69
2022-08-22T14:35:37.526Z,43.40
2022-08-22T14:37:01.847Z,42.83
2022-08-22T14:38:21.130Z,43.14
2022-08-22T14:39:38.558Z,42.61
2022-08-22T14:40:45.541Z,42.80
2022-08-22T14:42:03.445Z,42.87
2022-08-22T14:43:15.472Z,42.88
2022-08-22T14:44:51.661Z,42.16
2022-08-22T14:46:18.811Z,42.57
2022-08-22T14:47:54.370Z,42.25
2022-08-22T14:49:29.488Z,42.29
2022-08-22T14:50:54.624Z,41.94
2022-08-22T14:52:02.270Z,41.78
2022-08-22T14:53:11.184Z,42.10
2022-08-22T14:54:22.668Z,41.99
2022-08-22T14:55:30.767Z,41.95
2022-08-22T14:56:32.818Z,41.71
2022-08-22T14:57:40.876Z,41.98
2022-08-22T14:58:53.447Z,42.29
2022-08-22T14:59:55.154Z,41.82
2022-08-22T15:01:06.608Z,42.22
2022-08-22T15:02:23.522Z,42.60
2022-08-22T15:03:32.407Z,44.30
2022-08-22T15:04:40.688Z,44.66
2022-08-22T15:05:55.268Z,45.37
2022-08-22T15:06:58.861Z,45.42
2022-08-22T15:08:00.868Z,45.30
2022-08-22T15:09:49.260Z,47.72
2022-08-22T15:11:12.917Z,49.38
2022-08-22T15:12:27.673Z,49.58
2022-08-22T15:13:29.695Z,48.85
2022-08-22T15:14:37.076Z,47.93
2022-08-22T15:15:53.280Z,46.97
2022-08-22T15:17:05.536Z,47.09
2022-08-22T15:18:28.797Z,47.25
2022-08-22T15:19:33.412Z,47.03
2022-08-22T15:20:49.181Z,46.60
2022-08-22T15:22:13.650Z,47.32
2022-08-22T15:23:21.914Z,48.81
2022-08-22T15:24:24.833Z,49.80
2022-08-22T15:25:40.850Z,51.83
2022-08-22T15:26:55.310Z,52.31
2022-08-22T15:28:05.292Z,51.89
2022-08-22T15:29:10.149Z,50.63
2022-08-22T15:30:20.617Z,49.20
2022-08-22T15:31:23.318Z,50.25
2022-08-22T15:32:28.899Z,48.74
2022-08-22T15:33:39.165Z,47.71
2022-08-22T15:34:45.875Z,47.50
2022-08-22T15:35:49.033Z,47.00
2022-08-22T15:37:13.089Z,46.33
2022-08-22T15:38:39.793Z,47.67
2022-08-22T15:40:11.993Z,48.15
2022-08-22T15:41:43.625Z,48.77
2022-08-22T15:42:48.786Z,47.68
2022-08-22T15:44:02.022Z,46.91
2022-08-22T15:45:05.349Z,45.97
2022-08-22T15:46:21.056Z,45.75
2022-08-22T15:47:39.351Z,46.30
2022-08-22T15:48:42.759Z,45.56
2022-08-22T15:50:06.688Z,45.20
2022-08-22T15:51:25.033Z,45.59
2022-08-22T15:52:32.885Z,45.74
2022-08-22T15:53:43.691Z,45.61
2022-08-22T15:54:53.919Z,45.19
2022-08-22T15:56:16.669Z,45.50
2022-08-22T15:57:31.905Z,46.06
2022-08-22T15:58:40.272Z,45.51
2022-08-22T15:59:56.109Z,45.77
2022-08-22T16:01:19.817Z,45.59
2022-08-22T16:02:36.343Z,45.50
2022-08-22T16:03:41.125Z,45.27
2022-08-22T16:04:49.153Z,45.09
2022-08-22T16:05:58.485Z,45.01
2022-08-22T16:07:02.036Z,44.58
2022-08-22T16:08:12.741Z,44.36
2022-08-22T16:09:42.615Z,44.14
2022-08-22T16:10:54.515Z,44.05
2022-08-22T16:11:57.511Z,44.28
2022-08-22T16:13:32.127Z,44.11
2022-08-22T16:14:33.731Z,43.78
2022-08-22T16:15:50.339Z,43.95
2022-08-22T16:17:04.002Z,44.29
2022-08-22T16:18:05.834Z,44.11
2022-08-22T16:19:15.994Z,43.89
2022-08-22T16:20:20.176Z,43.82
2022-08-22T16:21:22.194Z,43.82
2022-08-22T16:22:56.428Z,44.02
2022-08-22T16:23:57.960Z,43.69
2022-08-22T16:25:02.754Z,43.64